Time;durP1;ratioP1;P1;durP2;ratioP2;P2;SDS_P1;SDS_P2;PMS_P1;PMS_P2;Temp;Humidity;BMP_temperature;BMP_pressure;BME280_temperature;BME280_humidity;BME280_pressure;Samples;Min_cycle;Max_cycle;Signal;HPM_P1;HPM_P2
2022/06/08 00:00:49;;;;;;;;;;;;;;;21.00;60.32;100501.97;7409375;19;1449;-58
2022/06/08 00:03:19;;;;;;;;;;;;;;;20.99;60.34;100485.00;7409238;19;1305;-57
2022/06/08 00:05:47;;;;;;;;;;;;;;;21.02;60.25;100495.44;7408719;19;1777;-57
2022/06/08 00:08:19;;;;;;;;;;;;;;;21.01;60.32;100507.19;7408140;19;1510;-58
2022/06/08 00:10:47;;;;;;;;;;;;;;;20.98;60.00;100499.44;7408168;19;1774;-58
2022/06/08 00:13:15;;;;;;;;;;;;;;;20.95;60.01;100488.16;7408909;19;1388;-58
2022/06/08 00:15:44;;;;;;;;;;;;;;;20.88;60.28;100482.56;7408315;19;1489;-58
2022/06/08 00:18:12;;;;;;;;;;;;;;;20.84;60.13;100495.44;7405678;19;1846;-58
2022/06/08 00:20:41;;;;;;;;;;;;;;;20.82;60.46;100483.16;7407317;19;1556;-57
2022/06/08 00:23:10;;;;;;;;;;;;;;;20.86;60.11;100501.50;7408008;19;996;-57
2022/06/08 00:25:41;;;;;;;;;;;;;;;20.89;60.07;100496.81;7408149;19;1761;-57
2022/06/08 00:28:09;;;;;;;;;;;;;;;20.89;60.33;100483.38;7408011;19;1438;-58
2022/06/08 00:30:38;;;;;;;;;;;;;;;20.81;60.50;100481.47;7407993;19;1438;-58
2022/06/08 00:33:06;;;;;;;;;;;;;;;20.74;60.90;100469.66;7405455;19;1446;-57
2022/06/08 00:35:35;;;;;;;;;;;;;;;20.40;61.79;100463.09;7407017;19;1309;-58
2022/06/08 00:38:03;;;;;;;;;;;;;;;20.46;61.53;100461.66;7405401;19;1889;-58
2022/06/08 00:40:37;;;;;;;;;;;;;;;20.51;61.63;100459.31;7406912;19;1690;-58
2022/06/08 00:43:08;;;;;;;;;;;;;;;20.55;61.33;100474.16;7407570;19;1540;-58
2022/06/08 00:45:36;;;;;;;;;;;;;;;20.53;61.41;100469.94;7406236;19;1415;-57
2022/06/08 00:48:05;;;;;;;;;;;;;;;20.71;60.90;100460.09;7405878;19;1355;-58
2022/06/08 00:50:36;;;;;;;;;;;;;;;20.86;60.96;100436.19;7406593;19;1670;-58
2022/06/08 00:53:05;;;;;;;;;;;;;;;20.92;60.90;100461.59;7407313;19;1375;-58
2022/06/08 00:55:35;;;;;;;;;;;;;;;20.84;61.29;100459.69;7406118;19;1686;-57
2022/06/08 00:58:05;;;;;;;;;;;;;;;20.97;60.59;100456.56;7406045;19;1849;-57
2022/06/08 01:00:37;;;;;;;;;;;;;;;21.01;61.15;100448.06;7407637;19;1679;-58
2022/06/08 01:03:06;;;;;;;;;;;;;;;20.94;61.23;100459.59;7406766;19;1482;-57
2022/06/08 01:05:37;;;;;;;;;;;;;;;20.93;61.42;100442.63;7406860;19;1521;-57
2022/06/08 01:08:08;;;;;;;;;;;;;;;20.86;61.34;100455.00;7406575;19;1451;-58
2022/06/08 01:10:39;;;;;;;;;;;;;;;21.02;61.80;100446.22;7406723;19;1697;-58
2022/06/08 01:13:08;;;;;;;;;;;;;;;20.91;61.68;100455.38;7406829;19;1595;-58
2022/06/08 01:15:39;;;;;;;;;;;;;;;20.93;61.23;100437.25;7405900;19;1541;-58
2022/06/08 01:18:08;;;;;;;;;;;;;;;20.96;61.30;100444.16;7404882;19;1845;-58
2022/06/08 01:20:37;;;;;;;;;;;;;;;20.89;61.57;100456.50;7403078;19;1532;-58
2022/06/08 01:23:08;;;;;;;;;;;;;;;20.91;61.40;100452.69;7405528;19;1067;-58
2022/06/08 01:25:40;;;;;;;;;;;;;;;20.83;61.30;100425.72;7405618;19;1798;-58
2022/06/08 01:28:13;;;;;;;;;;;;;;;21.03;61.09;100427.25;7406275;19;1552;-57
2022/06/08 01:30:46;;;;;;;;;;;;;;;20.99;61.34;100435.75;7404838;19;1364;-58
2022/06/08 01:33:38;;;;;;;;;;;;;;;21.11;61.30;100439.91;7404824;19;1864;-58
2022/06/08 01:36:28;;;;;;;;;;;;;;;21.09;61.42;100439.22;7403738;19;2114;-57
2022/06/08 01:39:04;;;;;;;;;;;;;;;20.98;61.65;100426.84;7400506;19;1849;-58
2022/06/08 01:41:42;;;;;;;;;;;;;;;21.04;61.21;100434.28;7405819;19;1619;-58
2022/06/08 01:44:15;;;;;;;;;;;;;;;21.00;61.65;100432.91;7405664;19;1603;-57
2022/06/08 01:46:48;;;;;;;;;;;;;;;20.95;61.54;100432.56;7405515;19;1533;-58
2022/06/08 01:49:24;;;;;;;;;;;;;;;20.99;61.20;100441.13;7406282;19;1047;-58
2022/06/08 01:52:05;;;;;;;;;;;;;;;20.99;61.52;100425.88;7406150;19;1334;-58
2022/06/08 01:54:41;;;;;;;;;;;;;;;21.01;61.51;100423.03;7402818;19;1789;-58
2022/06/08 01:57:14;;;;;;;;;;;;;;;20.98;61.66;100426.84;7405869;19;1860;-58
2022/06/08 01:59:46;;;;;;;;;;;;;;;20.97;61.68;100427.88;7403771;19;1765;-58
2022/06/08 02:02:18;;;;;;;;;;;;;;;20.98;61.52;100429.53;7397206;19;1373;-58
2022/06/08 02:04:50;;;;;;;;;;;;;;;21.02;61.24;100432.75;7402916;19;1611;-58
2022/06/08 02:07:23;;;;;;;;;;;;;;;20.86;61.93;100423.56;7403686;19;1603;-58
2022/06/08 02:09:58;;;;;;;;;;;;;;;21.00;61.65;100438.28;7403501;19;1316;-58
2022/06/08 02:12:26;;;;;;;;;;;;;;;21.10;61.53;100427.44;7403349;19;1547;-57
2022/06/08 02:14:57;;;;;;;;;;;;;;;21.09;61.70;100441.91;7404735;19;1317;-58
2022/06/08 02:17:28;;;;;;;;;;;;;;;20.95;61.71;100440.63;7404094;19;1837;-57
2022/06/08 02:20:00;;;;;;;;;;;;;;;21.02;61.36;100455.09;7403690;19;1205;-57
2022/06/08 02:22:33;;;;;;;;;;;;;;;21.01;61.48;100445.38;7405121;19;996;-58
2022/06/08 02:25:09;;;;;;;;;;;;;;;21.00;61.58;100450.91;7402302;19;1447;-57
2022/06/08 02:27:40;;;;;;;;;;;;;;;21.01;61.69;100445.38;7403909;19;1587;-58
2022/06/08 02:30:11;;;;;;;;;;;;;;;20.96;61.46;100455.75;7402978;19;1529;-58
2022/06/08 02:35:25;;;;;;;;;;;;;;;20.98;61.25;100440.28;7412854;19;1367;-58
2022/06/08 02:37:56;;;;;;;;;;;;;;;20.89;61.61;100446.63;7409462;19;1850;-58
2022/06/08 02:40:29;;;;;;;;;;;;;;;20.83;61.86;100436.47;7410439;19;1499;-58
2022/06/08 02:42:59;;;;;;;;;;;;;;;20.89;61.81;100441.25;7411862;19;1533;-58
2022/06/08 02:45:30;;;;;;;;;;;;;;;21.00;61.85;100440.97;7410090;19;1532;-58
2022/06/08 02:48:02;;;;;;;;;;;;;;;21.00;61.88;100438.28;7409822;19;1654;-58
2022/06/08 02:50:32;;;;;;;;;;;;;;;21.01;61.35;100429.25;7411073;19;1272;-58
2022/06/08 02:53:30;;;;;;;;;;;;;;;21.06;61.76;100432.28;7412003;19;1003;-57
2022/06/08 02:56:06;;;;;;;;;;;;;;;21.02;61.67;100430.09;7411384;19;1628;-58
2022/06/08 02:58:39;;;;;;;;;;;;;;;21.08;61.81;100415.16;7406354;19;1955;-58
2022/06/08 03:01:12;;;;;;;;;;;;;;;20.89;62.13;100414.38;7409023;19;1435;-57
2022/06/08 03:03:45;;;;;;;;;;;;;;;20.92;62.42;100415.91;7410657;19;1524;-58
2022/06/08 03:06:17;;;;;;;;;;;;;;;20.96;61.99;100434.22;7410816;19;1619;-58
2022/06/08 03:08:50;;;;;;;;;;;;;;;21.00;62.13;100426.72;7412037;19;967;-57
2022/06/08 03:11:22;;;;;;;;;;;;;;;20.79;62.16;100430.59;7411470;19;1003;-58
2022/06/08 03:13:53;;;;;;;;;;;;;;;20.83;62.41;100439.16;7410519;19;1534;-57
2022/06/08 03:16:27;;;;;;;;;;;;;;;20.96;62.17;100444.97;7410153;19;1750;-57
2022/06/08 03:18:56;;;;;;;;;;;;;;;20.99;61.72;100439.31;7407513;19;1870;-58
2022/06/08 03:21:25;;;;;;;;;;;;;;;21.01;61.99;100461.50;7410032;19;1542;-57
2022/06/08 03:23:54;;;;;;;;;;;;;;;20.90;62.03;100453.69;7410887;19;1626;-58
2022/06/08 03:26:26;;;;;;;;;;;;;;;20.66;62.98;100449.78;7410262;19;1544;-58
2022/06/08 03:28:55;;;;;;;;;;;;;;;20.66;63.16;100471.28;7410787;19;1169;-58
2022/06/08 03:31:24;;;;;;;;;;;;;;;20.79;62.71;100452.09;7410498;19;1482;-57
2022/06/08 03:33:52;;;;;;;;;;;;;;;20.83;62.73;100464.22;7408639;19;1741;-58
2022/06/08 03:36:20;;;;;;;;;;;;;;;20.84;62.70;100455.13;7409051;19;1675;-58
2022/06/08 03:38:49;;;;;;;;;;;;;;;20.82;62.93;100459.81;7408242;19;1844;-56
2022/06/08 03:41:17;;;;;;;;;;;;;;;20.84;62.81;100465.06;7410997;19;1036;-57
2022/06/08 03:43:48;;;;;;;;;;;;;;;20.83;63.27;100471.41;7408510;19;1754;-61
2022/06/08 03:46:18;;;;;;;;;;;;;;;20.89;63.03;100473.50;7406570;19;1659;-57
2022/06/08 03:48:47;;;;;;;;;;;;;;;20.89;63.25;100484.25;7404005;19;1557;-57
2022/06/08 03:51:17;;;;;;;;;;;;;;;20.74;63.65;100472.34;7405056;19;1672;-57
2022/06/08 03:53:48;;;;;;;;;;;;;;;20.68;63.74;100479.19;7405056;19;1651;-57
2022/06/08 03:56:19;;;;;;;;;;;;;;;20.80;63.60;100475.25;7406413;19;1152;-57
2022/06/08 03:58:50;;;;;;;;;;;;;;;20.89;63.25;100470.81;7403739;19;1863;-55
2022/06/08 04:01:19;;;;;;;;;;;;;;;20.93;63.53;100477.56;7405569;19;1592;-57
2022/06/08 04:03:50;;;;;;;;;;;;;;;20.88;63.75;100471.81;7408550;19;1282;-56
2022/06/08 04:06:19;;;;;;;;;;;;;;;21.00;63.55;100464.34;7408713;19;1198;-57
2022/06/08 04:08:47;;;;;;;;;;;;;;;21.08;63.49;100475.16;7409684;19;938;-55
2022/06/08 04:11:16;;;;;;;;;;;;;;;21.05;63.91;100462.03;7408964;19;1679;-55
2022/06/08 04:13:44;;;;;;;;;;;;;;;21.03;64.32;100448.75;7408588;19;1770;-57
2022/06/08 04:16:15;;;;;;;;;;;;;;;21.05;64.51;100470.94;7408238;19;1566;-57
2022/06/08 04:18:44;;;;;;;;;;;;;;;21.08;64.83;100469.78;7407144;19;1852;-55
2022/06/08 04:21:13;;;;;;;;;;;;;;;21.09;64.90;100470.63;7407506;19;1438;-57
2022/06/08 04:23:42;;;;;;;;;;;;;;;21.11;64.99;100472.16;7409132;19;1017;-55
2022/06/08 04:26:12;;;;;;;;;;;;;;;21.23;64.66;100478.13;7408282;19;1355;-58
2022/06/08 04:28:41;;;;;;;;;;;;;;;21.18;65.37;100485.81;7407755;19;1419;-55
2022/06/08 04:31:09;;;;;;;;;;;;;;;21.26;65.21;100475.13;7407857;19;1679;-56
2022/06/08 04:33:40;;;;;;;;;;;;;;;21.25;65.49;100476.97;7406984;19;1648;-55
2022/06/08 04:54:57;;;;;;;;;;;;;;;21.54;64.37;100499.22;7392568;19;1360;-40
2022/06/08 05:15:01;;;;;;;;;;;;;;;21.67;63.61;100513.09;7402574;19;1468;-43
2022/06/08 05:17:29;;;;;;;;;;;;;;;21.48;63.59;100505.22;7400011;19;1712;-43
2022/06/08 05:19:58;;;;;;;;;;;;;;;21.43;63.92;100503.84;7397221;19;1862;-43
2022/06/08 05:22:26;;;;;;;;;;;;;;;21.39;63.56;100513.22;7404120;19;1059;-43
2022/06/08 05:24:54;;;;;;;;;;;;;;;21.39;63.70;100507.81;7402143;19;1812;-43
2022/06/08 05:27:23;;;;;;;;;;;;;;;21.38;63.46;100495.38;7401492;19;1665;-43
2022/06/08 05:29:51;;;;;;;;;;;;;;;21.57;63.06;100494.34;7400404;19;1676;-43
2022/06/08 05:32:22;;;;;;;;;;;;;;;21.65;63.07;100523.16;7400663;19;1406;-43
2022/06/08 05:34:50;;;;;;;;;;;;;;;21.80;62.65;100509.94;7402148;19;1507;-43
2022/06/08 05:37:18;;;;;;;;;;;;;;;21.88;62.91;100501.06;7403275;19;2017;-43
2022/06/08 05:39:47;;;;;;;;;;;;;;;21.99;62.43;100514.25;7400454;19;1845;-43
2022/06/08 05:42:15;;;;;;;;;;;;;;;22.04;62.38;100507.38;7403427;19;1000;-43
2022/06/08 05:44:43;;;;;;;;;;;;;;;22.10;62.36;100508.56;7401595;19;1604;-43
2022/06/08 05:47:12;;;;;;;;;;;;;;;22.21;61.55;100505.59;7401671;19;1814;-43
2022/06/08 05:49:43;;;;;;;;;;;;;;;22.29;61.86;100509.34;7400115;19;1802;-43
2022/06/08 05:52:11;;;;;;;;;;;;;;;22.17;62.08;100506.91;7401317;19;1561;-43
2022/06/08 05:54:39;;;;;;;;;;;;;;;22.16;61.94;100509.78;7400855;19;1714;-43
2022/06/08 05:57:08;;;;;;;;;;;;;;;22.18;62.27;100505.94;7402877;19;1667;-43
2022/06/08 05:59:36;;;;;;;;;;;;;;;22.23;62.02;100498.19;7398429;19;1841;-42
2022/06/08 06:02:05;;;;;;;;;;;;;;;22.30;61.97;100511.03;7399333;19;1705;-44
2022/06/08 06:04:33;;;;;;;;;;;;;;;22.24;62.14;100508.00;7400943;19;1721;-43
2022/06/08 06:07:04;;;;;;;;;;;;;;;22.31;62.31;100501.97;7400663;19;1542;-43
2022/06/08 06:09:33;;;;;;;;;;;;;;;22.20;62.20;100500.34;7401940;19;1680;-43
2022/06/08 06:12:02;;;;;;;;;;;;;;;22.20;62.26;100506.63;7401416;19;1700;-43
2022/06/08 06:14:30;;;;;;;;;;;;;;;22.18;62.11;100502.38;7399796;19;1872;-43
2022/06/08 06:16:58;;;;;;;;;;;;;;;22.15;62.33;100508.94;7401022;19;1713;-43
2022/06/08 06:19:27;;;;;;;;;;;;;;;22.20;62.00;100509.31;7399135;19;1863;-42
2022/06/08 06:21:55;;;;;;;;;;;;;;;22.33;62.03;100500.78;7400790;19;1579;-43
2022/06/08 06:24:26;;;;;;;;;;;;;;;22.42;62.08;100504.31;7401105;19;1662;-43
2022/06/08 06:26:55;;;;;;;;;;;;;;;22.53;62.32;100485.16;7401991;19;1716;-43
2022/06/08 06:29:23;;;;;;;;;;;;;;;22.55;62.37;100501.16;7399997;19;1726;-43
2022/06/08 06:31:53;;;;;;;;;;;;;;;22.51;62.11;100503.34;7399703;19;1746;-43
2022/06/08 06:34:23;;;;;;;;;;;;;;;22.54;62.00;100494.94;7399760;19;1828;-43
2022/06/08 06:36:52;;;;;;;;;;;;;;;22.61;61.79;100490.56;7400109;19;1702;-43
2022/06/08 06:39:20;;;;;;;;;;;;;;;22.64;61.80;100481.28;7398815;19;1847;-43
2022/06/08 06:41:51;;;;;;;;;;;;;;;22.63;61.70;100480.44;7401130;19;1579;-43
2022/06/08 06:44:19;;;;;;;;;;;;;;;22.62;61.80;100476.09;7400049;19;1789;-43
2022/06/08 06:46:48;;;;;;;;;;;;;;;22.77;62.22;100480.81;7398536;19;1684;-42
2022/06/08 06:49:17;;;;;;;;;;;;;;;22.52;62.81;100491.56;7399482;19;1670;-43
2022/06/08 06:51:45;;;;;;;;;;;;;;;21.17;64.02;100492.19;7400657;19;1588;-43
2022/06/08 06:54:14;;;;;;;;;;;;;;;20.37;64.26;100495.63;7400481;19;1827;-42
2022/06/08 06:56:42;;;;;;;;;;;;;;;19.82;63.18;100503.69;7400001;19;1113;-42
2022/06/08 06:59:13;;;;;;;;;;;;;;;19.50;62.25;100501.34;7397522;19;1888;-42
2022/06/08 07:01:42;;;;;;;;;;;;;;;19.39;61.36;100497.84;7399251;19;1546;-42
2022/06/08 07:04:10;;;;;;;;;;;;;;;19.28;60.61;100476.59;7399828;19;1623;-42
2022/06/08 07:06:38;;;;;;;;;;;;;;;19.17;59.79;100495.50;7400162;19;1650;-42
2022/06/08 07:09:07;;;;;;;;;;;;;;;19.10;59.03;100479.16;7400579;19;1418;-43
2022/06/08 07:11:37;;;;;;;;;;;;;;;19.08;58.14;100479.28;7400901;19;992;-42
2022/06/08 07:14:07;;;;;;;;;;;;;;;19.00;57.71;100495.22;7397527;19;1616;-42
2022/06/08 07:16:38;;;;;;;;;;;;;;;18.96;57.35;100485.78;7400566;19;1644;-42
2022/06/08 07:19:08;;;;;;;;;;;;;;;18.80;57.20;100480.13;7405485;19;1853;-42
2022/06/08 07:21:37;;;;;;;;;;;;;;;18.69;57.02;100473.06;7407605;19;1568;-42
2022/06/08 07:24:06;;;;;;;;;;;;;;;18.67;56.49;100485.75;7407606;19;1863;-43
2022/06/08 07:26:35;;;;;;;;;;;;;;;18.56;56.13;100469.81;7407732;19;1075;-42
2022/06/08 07:29:05;;;;;;;;;;;;;;;18.55;55.82;100474.31;7404496;19;1794;-42
2022/06/08 07:31:33;;;;;;;;;;;;;;;18.47;55.45;100476.84;7406705;19;1482;-42
2022/06/08 07:34:04;;;;;;;;;;;;;;;18.47;55.17;100485.72;7406525;19;1490;-42
2022/06/08 07:36:32;;;;;;;;;;;;;;;18.38;54.96;100488.38;7406394;19;1461;-42
2022/06/08 07:39:01;;;;;;;;;;;;;;;18.30;55.41;100497.09;7405808;19;1838;-42
2022/06/08 07:41:29;;;;;;;;;;;;;;;18.27;55.25;100490.19;7407434;19;1098;-42
2022/06/08 07:43:57;;;;;;;;;;;;;;;18.31;54.72;100487.25;7403914;19;1698;-42
2022/06/08 07:46:26;;;;;;;;;;;;;;;18.23;54.62;100486.09;7406329;19;1570;-42
2022/06/08 07:51:37;;;;;;;;;;;;;;;18.06;54.33;100484.94;7407184;19;1582;-42
2022/06/08 07:54:06;;;;;;;;;;;;;;;18.06;54.27;100489.44;7407733;19;1620;-43
2022/06/08 07:56:34;;;;;;;;;;;;;;;18.03;53.95;100495.91;7405490;19;1069;-42
2022/06/08 07:59:03;;;;;;;;;;;;;;;18.03;54.24;100495.06;7402633;19;1855;-42
2022/06/08 08:01:31;;;;;;;;;;;;;;;17.94;53.94;100480.66;7405252;19;1406;-42
2022/06/08 08:04:01;;;;;;;;;;;;;;;17.93;53.74;100484.34;7406329;19;1875;-42
2022/06/08 08:06:29;;;;;;;;;;;;;;;17.87;53.92;100488.38;7405995;19;1921;-42
2022/06/08 08:09:01;;;;;;;;;;;;;;;17.90;53.77;100479.25;7405578;19;1701;-42
2022/06/08 08:11:29;;;;;;;;;;;;;;;17.89;53.77;100477.56;7405564;19;1514;-42
2022/06/08 08:13:57;;;;;;;;;;;;;;;17.85;53.50;100474.31;7405811;19;1764;-42
2022/06/08 08:16:26;;;;;;;;;;;;;;;17.83;54.13;100476.28;7405712;19;1814;-42
2022/06/08 08:18:54;;;;;;;;;;;;;;;17.92;54.56;100487.13;7407166;19;1842;-42
2022/06/08 08:21:22;;;;;;;;;;;;;;;17.85;54.41;100479.66;7406820;19;1673;-42
2022/06/08 08:23:51;;;;;;;;;;;;;;;17.89;54.71;100485.59;7404983;19;1832;-43
2022/06/08 08:26:21;;;;;;;;;;;;;;;17.86;54.83;100473.31;7405680;19;1019;-42
2022/06/08 08:28:50;;;;;;;;;;;;;;;17.86;54.56;100473.31;7402084;19;1722;-42
2022/06/08 08:31:18;;;;;;;;;;;;;;;17.84;54.42;100461.06;7404431;19;1679;-42
2022/06/08 08:33:46;;;;;;;;;;;;;;;17.86;54.70;100470.63;7404121;19;1749;-42
2022/06/08 08:36:14;;;;;;;;;;;;;;;17.83;54.66;100486.09;7404855;19;1632;-42
2022/06/08 08:38:43;;;;;;;;;;;;;;;17.87;54.94;100469.66;7405809;19;1020;-42
2022/06/08 08:42:20;;;;;;;;;;;;;;;17.81;54.86;100467.50;7402397;19;1891;-42
2022/06/08 08:44:09;;;;;;;;;;;;;;;17.73;55.02;100467.34;7401034;19;1755;-43
2022/06/08 08:52:26;;;;;;;;;;;;;;;20.67;54.79;100464.03;7403882;19;1601;-43
2022/06/08 08:54:59;;;;;;;;;;;;;;;20.92;53.98;100467.81;7402841;19;1765;-43
2022/06/08 08:57:36;;;;;;;;;;;;;;;21.16;54.69;100475.22;7404197;19;1908;-41
2022/06/08 09:00:17;;;;;;;;;;;;;;;21.35;54.80;100484.94;7403040;19;1860;-42
2022/06/08 09:05:33;;;;;;;;;;;;;;;21.65;53.87;100467.50;7400067;19;1810;-42
2022/06/08 09:08:05;;;;;;;;;;;;;;;21.56;54.45;100459.53;7402212;19;1889;-42
2022/06/08 09:10:34;;;;;;;;;;;;;;;21.64;54.21;100467.66;7401524;19;1591;-42
2022/06/08 09:13:04;;;;;;;;;;;;;;;21.65;54.81;100470.19;7402173;19;1751;-42
2022/06/08 09:15:50;;;;;;;;;;;;;;;21.66;54.51;100454.88;7402462;19;1565;-42
2022/06/08 09:18:33;;;;;;;;;;;;;;;21.69;54.77;100454.56;7403348;19;1718;-42
2022/06/08 09:21:03;;;;;;;;;;;;;;;21.75;55.18;100436.94;7401626;19;1846;-42
2022/06/08 09:23:40;;;;;;;;;;;;;;;21.79;55.23;100444.50;7403744;19;1675;-42
2022/06/08 09:26:13;;;;;;;;;;;;;;;21.84;55.35;100468.25;7402601;19;1973;-43
2022/06/08 09:28:42;;;;;;;;;;;;;;;21.76;55.59;100455.59;7401547;19;1745;-43
2022/06/08 09:31:26;;;;;;;;;;;;;;;21.78;55.92;100467.03;7401253;19;1594;-42
2022/06/08 09:34:06;;;;;;;;;;;;;;;21.76;55.82;100452.91;7402645;19;1819;-43
2022/06/08 09:36:36;;;;;;;;;;;;;;;21.77;56.22;100459.16;7401739;19;1577;-43
2022/06/08 09:39:05;;;;;;;;;;;;;;;21.79;56.36;100459.81;7402325;19;1563;-42
2022/06/08 09:41:36;;;;;;;;;;;;;;;21.81;56.07;100460.50;7400783;19;1693;-43
2022/06/08 09:44:13;;;;;;;;;;;;;;;21.77;56.20;100459.97;7401565;19;1685;-43
2022/06/08 09:52:23;;;;;;;;;;;;;;;21.87;56.47;100456.34;7401425;19;2136;-43
2022/06/08 09:54:59;;;;;;;;;;;;;;;21.87;56.73;100451.78;7400051;19;1488;-42
2022/06/08 09:57:42;;;;;;;;;;;;;;;21.87;56.80;100451.78;7402299;19;1637;-42
2022/06/08 10:00:18;;;;;;;;;;;;;;;21.89;56.70;100462.41;7400686;19;2103;-42
2022/06/08 10:02:53;;;;;;;;;;;;;;;21.90;57.24;100450.59;7400043;19;1669;-42
2022/06/08 10:05:32;;;;;;;;;;;;;;;21.92;56.81;100460.19;7401266;19;1588;-43
2022/06/08 10:08:13;;;;;;;;;;;;;;;21.92;56.95;100437.81;7401122;19;1687;-42
2022/06/08 10:10:45;;;;;;;;;;;;;;;21.92;56.99;100432.44;7401360;19;1967;-42
2022/06/08 10:13:19;;;;;;;;;;;;;;;21.94;56.85;100419.66;7400717;19;1646;-43
2022/06/08 10:15:51;;;;;;;;;;;;;;;21.98;56.90;100443.38;7401816;19;1737;-42
2022/06/08 10:18:22;;;;;;;;;;;;;;;21.98;56.76;100423.72;7401451;19;1362;-42
2022/06/08 10:20:55;;;;;;;;;;;;;;;21.97;56.91;100416.66;7400441;19;1850;-42
2022/06/08 10:23:29;;;;;;;;;;;;;;;22.02;56.71;100434.00;7401464;19;1806;-42
2022/06/08 10:26:00;;;;;;;;;;;;;;;22.01;57.01;100423.41;7401099;19;1714;-43
2022/06/08 10:28:31;;;;;;;;;;;;;;;22.02;56.80;100414.28;7397790;19;1723;-43
2022/06/08 10:31:02;;;;;;;;;;;;;;;22.02;57.63;100411.59;7401335;19;1488;-43
2022/06/08 10:33:36;;;;;;;;;;;;;;;22.04;57.47;100405.06;7400828;19;1589;-43
2022/06/08 10:36:10;;;;;;;;;;;;;;;22.08;57.95;100396.66;7400946;19;1653;-43
2022/06/08 10:38:42;;;;;;;;;;;;;;;22.04;57.64;100406.91;7401286;19;1590;-42
2022/06/08 10:44:01;;;;;;;;;;;;;;;22.14;57.90;100407.59;7401814;19;1520;-42
2022/06/08 10:46:32;;;;;;;;;;;;;;;22.11;57.77;100382.88;7400429;19;1465;-42
2022/06/08 10:49:01;;;;;;;;;;;;;;;22.10;57.81;100392.78;7399672;19;1661;-42
2022/06/08 10:51:41;;;;;;;;;;;;;;;22.07;57.97;100376.97;7399969;19;1536;-42
2022/06/08 10:57:04;;;;;;;;;;;;;;;22.06;58.14;100369.88;7405848;19;1959;-42
2022/06/08 10:59:33;;;;;;;;;;;;;;;22.09;57.89;100366.88;7406609;19;1857;-42
2022/06/08 11:02:04;;;;;;;;;;;;;;;22.17;57.96;100377.66;7405007;19;1704;-43
2022/06/08 11:04:43;;;;;;;;;;;;;;;22.12;57.83;100369.22;7408212;19;1686;-43
2022/06/08 11:07:17;;;;;;;;;;;;;;;22.14;57.83;100367.19;7407893;19;1713;-42
2022/06/08 11:09:53;;;;;;;;;;;;;;;22.16;58.04;100370.59;7405654;19;1297;-42
2022/06/08 11:12:39;;;;;;;;;;;;;;;22.17;58.06;100360.66;7408171;19;1493;-42
2022/06/08 11:15:13;;;;;;;;;;;;;;;22.22;58.28;100378.00;7406709;19;1831;-42
2022/06/08 11:17:45;;;;;;;;;;;;;;;22.20;58.41;100355.78;7406426;19;2184;-43
2022/06/08 11:20:16;;;;;;;;;;;;;;;22.21;58.90;100352.06;7405482;19;1861;-43
2022/06/08 11:22:52;;;;;;;;;;;;;;;22.23;59.38;100350.03;7407107;19;1817;-42
2022/06/08 11:25:24;;;;;;;;;;;;;;;22.24;58.80;100349.09;7407075;19;1807;-42
2022/06/08 11:28:07;;;;;;;;;;;;;;;22.27;59.18;100349.75;7408700;19;1481;-42
2022/06/08 11:30:49;;;;;;;;;;;;;;;22.26;59.08;100361.53;7408019;19;1788;-42
2022/06/08 11:33:19;;;;;;;;;;;;;;;22.22;58.76;100326.84;7406667;19;1483;-43
2022/06/08 11:36:03;;;;;;;;;;;;;;;22.29;58.48;100336.97;7406949;19;1769;-43
2022/06/08 11:38:46;;;;;;;;;;;;;;;22.26;58.75;100345.38;7406162;19;1794;-42
2022/06/08 11:41:30;;;;;;;;;;;;;;;22.27;58.83;100325.50;7405166;19;2526;-42
2022/06/08 11:44:03;;;;;;;;;;;;;;;22.25;58.78;100347.22;7403418;19;1717;-43
2022/06/08 11:46:33;;;;;;;;;;;;;;;22.28;58.57;100311.03;7405466;19;1584;-42
2022/06/08 11:49:01;;;;;;;;;;;;;;;22.29;58.77;100326.19;7404874;19;1725;-43
2022/06/08 11:51:31;;;;;;;;;;;;;;;22.30;58.69;100341.31;7405000;19;1764;-43
2022/06/08 11:54:03;;;;;;;;;;;;;;;22.30;59.12;100326.00;7405494;19;1521;-43
2022/06/08 11:56:36;;;;;;;;;;;;;;;22.31;58.89;100330.38;7404536;19;1540;-42
2022/06/08 11:59:09;;;;;;;;;;;;;;;22.30;59.12;100327.84;7403759;19;2035;-42
2022/06/08 12:01:42;;;;;;;;;;;;;;;22.33;59.07;100344.53;7403649;19;1844;-43
2022/06/08 12:04:14;;;;;;;;;;;;;;;22.30;58.88;100336.78;7404653;19;1775;-43
2022/06/08 12:06:44;;;;;;;;;;;;;;;22.30;59.10;100322.47;7405608;19;1571;-43
2022/06/08 12:09:15;;;;;;;;;;;;;;;22.27;58.92;100318.28;7406056;19;1490;-44
2022/06/08 12:11:45;;;;;;;;;;;;;;;22.30;59.04;100317.91;7406862;19;1747;-42
2022/06/08 12:14:26;;;;;;;;;;;;;;;22.32;59.49;100325.84;7402904;19;1852;-43
2022/06/08 12:16:56;;;;;;;;;;;;;;;22.32;59.72;100337.47;7402932;19;1813;-43
2022/06/08 12:19:25;;;;;;;;;;;;;;;22.31;59.51;100326.88;7403178;19;1960;-42
2022/06/08 12:22:10;;;;;;;;;;;;;;;22.33;59.91;100328.38;7403321;19;1855;-42
2022/06/08 12:24:38;;;;;;;;;;;;;;;22.33;59.98;100332.94;7403141;19;1751;-42
2022/06/08 12:27:24;;;;;;;;;;;;;;;22.32;60.00;100320.44;7404874;19;1577;-42
2022/06/08 12:30:00;;;;;;;;;;;;;;;22.32;59.99;100325.84;7403410;19;1833;-42
2022/06/08 12:32:34;;;;;;;;;;;;;;;22.33;59.85;100322.16;7404562;19;1491;-42
2022/06/08 12:35:26;;;;;;;;;;;;;;;22.34;60.11;100315.72;7404320;19;1665;-43
2022/06/08 12:38:19;;;;;;;;;;;;;;;22.41;59.82;100301.44;7402529;19;1891;-43
2022/06/08 12:41:00;;;;;;;;;;;;;;;22.32;60.40;100320.44;7401612;19;1860;-42
2022/06/08 12:43:36;;;;;;;;;;;;;;;22.33;59.72;100320.28;7402661;19;1680;-43
2022/06/08 12:46:20;;;;;;;;;;;;;;;22.33;59.90;100327.53;7404518;19;1811;-43
2022/06/08 12:48:58;;;;;;;;;;;;;;;22.32;59.89;100309.69;7403542;19;1771;-43
2022/06/08 12:51:33;;;;;;;;;;;;;;;22.34;59.76;100323.81;7403994;19;1399;-43
2022/06/08 12:54:02;;;;;;;;;;;;;;;22.31;60.36;100305.31;7404394;19;1918;-43
2022/06/08 12:56:31;;;;;;;;;;;;;;;22.36;60.10;100322.66;7402707;19;1474;-43
2022/06/08 12:58:59;;;;;;;;;;;;;;;22.39;60.31;100322.31;7403752;19;1340;-43
2022/06/08 13:01:29;;;;;;;;;;;;;;;22.33;60.38;100319.47;7401959;19;1850;-43
2022/06/08 13:04:00;;;;;;;;;;;;;;;22.35;60.57;100312.03;7403110;19;1360;-43
2022/06/08 13:06:28;;;;;;;;;;;;;;;22.38;60.25;100325.16;7403983;19;1681;-43
2022/06/08 13:08:56;;;;;;;;;;;;;;;22.32;60.44;100317.75;7403416;19;1508;-43
2022/06/08 13:11:25;;;;;;;;;;;;;;;22.32;60.39;100304.28;7403733;19;1422;-43
2022/06/08 13:13:55;;;;;;;;;;;;;;;22.31;60.35;100313.41;7400455;19;1862;-43
2022/06/08 13:16:24;;;;;;;;;;;;;;;22.34;59.43;100313.03;7400615;19;1812;-42
2022/06/08 13:18:53;;;;;;;;;;;;;;;22.40;59.04;100312.38;7402055;19;1572;-43
2022/06/08 13:21:25;;;;;;;;;;;;;;;22.35;58.99;100317.44;7401957;19;1861;-43
2022/06/08 13:23:53;;;;;;;;;;;;;;;22.37;59.87;100307.31;7403196;19;1399;-43
2022/06/08 13:26:22;;;;;;;;;;;;;;;;;;7403894;19;1011;-43
2022/06/08 13:28:50;;;;;;;;;;;;;;;22.38;59.65;100312.56;7399541;19;1756;-43
2022/06/08 13:31:22;;;;;;;;;;;;;;;;;;7402618;19;1685;-43
2022/06/08 13:34:00;;;;;;;;;;;;;;;22.39;59.65;100318.78;7402067;19;1619;-43
2022/06/08 13:36:37;;;;;;;;;;;;;;;22.37;60.13;100301.94;7402042;19;1733;-43
2022/06/08 13:39:24;;;;;;;;;;;;;;;22.40;59.89;100317.75;7401243;19;1865;-43
2022/06/08 13:42:08;;;;;;;;;;;;;;;22.43;59.32;100306.66;7402257;19;1842;-43
2022/06/08 13:44:39;;;;;;;;;;;;;;;22.46;59.64;100322.47;7402484;19;1655;-43
2022/06/08 13:47:15;;;;;;;;;;;;;;;22.47;59.69;100301.78;7402699;19;1583;-43
2022/06/08 13:49:47;;;;;;;;;;;;;;;22.46;59.88;100306.28;7400726;19;1969;-43
2022/06/08 13:52:28;;;;;;;;;;;;;;;22.47;59.69;100317.94;7400749;19;1597;-43
2022/06/08 13:55:01;;;;;;;;;;;;;;;22.44;59.66;100300.22;7400109;19;1543;-43
2022/06/08 13:57:33;;;;;;;;;;;;;;;22.48;59.64;100322.28;7401537;19;1420;-43
2022/06/08 14:00:11;;;;;;;;;;;;;;;22.47;58.89;100308.00;7400714;19;1822;-43
2022/06/08 14:02:46;;;;;;;;;;;;;;;22.62;59.50;100311.69;7398322;19;1853;-43
2022/06/08 14:05:18;;;;;;;;;;;;;;;22.59;57.77;100314.72;7404834;19;1626;-43
2022/06/08 14:13:26;;;;;;;;;;;;;;;22.42;58.87;100305.81;7402349;19;1533;-43
2022/06/08 14:15:57;;;;;;;;;;;;;;;22.51;58.96;100303.94;7400605;19;1836;-43
2022/06/08 14:18:29;;;;;;;;;;;;;;;22.49;58.67;100273.63;7402890;19;1037;-43